createdAt,value
2022-08-20T00:02:16.711Z,5.78
2022-08-20T00:04:44.206Z,4.57
2022-08-20T00:07:11.659Z,6.60
2022-08-20T00:09:39.273Z,7.55
2022-08-20T00:12:07.360Z,7.72
2022-08-20T00:14:35.898Z,4.93
2022-08-20T00:17:04.813Z,8.00
2022-08-20T00:19:32.254Z,9.07
2022-08-20T00:21:59.434Z,8.60
2022-08-20T00:24:27.541Z,8.50
2022-08-20T00:26:54.525Z,9.10
2022-08-20T00:29:22.651Z,8.43
2022-08-20T00:31:50.803Z,8.90
2022-08-20T00:34:18.290Z,8.10
2022-08-20T00:36:45.344Z,8.18
2022-08-20T00:39:13.172Z,9.85
2022-08-20T00:41:40.200Z,9.95
2022-08-20T00:44:18.734Z,8.07
2022-08-20T00:46:46.980Z,8.48
2022-08-20T00:49:28.146Z,8.70
2022-08-20T00:52:06.203Z,7.93
2022-08-20T00:54:43.969Z,8.10
2022-08-20T00:57:59.972Z,9.13
2022-08-20T01:00:37.997Z,6.80
2022-08-20T01:03:09.976Z,8.30
2022-08-20T01:05:38.565Z,8.77
2022-08-20T01:08:06.731Z,9.98
2022-08-20T01:13:11.083Z,9.00
2022-08-20T01:15:43.041Z,8.85
2022-08-20T01:18:16.118Z,8.48
2022-08-20T01:20:49.619Z,10.27
2022-08-20T01:23:34.923Z,8.77
2022-08-20T01:26:14.112Z,7.93
2022-08-20T01:28:44.921Z,9.63
2022-08-20T01:31:20.026Z,5.43
2022-08-20T01:33:48.289Z,7.60
2022-08-20T01:36:17.769Z,7.68
2022-08-20T01:38:51.932Z,7.93
2022-08-20T01:41:36.610Z,7.95
2022-08-20T01:44:05.796Z,9.32
2022-08-20T01:46:43.996Z,8.77
2022-08-20T01:49:28.265Z,8.38
2022-08-20T01:51:59.535Z,8.75
2022-08-20T01:54:28.462Z,7.97
2022-08-20T01:59:32.503Z,8.98
2022-08-20T02:02:00.313Z,5.80
2022-08-20T02:04:27.475Z,10.90
2022-08-20T02:06:58.682Z,8.82
2022-08-20T02:09:28.249Z,8.68
2022-08-20T02:11:56.650Z,8.40
2022-08-20T02:14:24.790Z,8.60
2022-08-20T02:16:55.051Z,9.07
2022-08-20T02:19:48.181Z,9.23
2022-08-20T02:22:21.030Z,8.55
2022-08-20T02:24:48.890Z,10.15
2022-08-20T02:27:16.091Z,9.45
2022-08-20T02:29:50.326Z,10.25
2022-08-20T02:32:32.238Z,9.68
2022-08-20T02:35:04.880Z,9.50
2022-08-20T02:37:32.344Z,10.30
2022-08-20T02:39:59.802Z,11.38
2022-08-20T02:42:27.120Z,11.25
2022-08-20T02:44:55.027Z,9.93
2022-08-20T02:47:22.308Z,9.93
2022-08-20T02:49:49.753Z,10.18
2022-08-20T02:52:17.307Z,9.48
2022-08-20T02:54:44.723Z,8.98
2022-08-20T02:57:17.129Z,11.02
2022-08-20T02:59:45.313Z,9.05
2022-08-20T03:02:12.935Z,8.23
2022-08-20T03:04:43.055Z,5.30
2022-08-20T03:07:11.609Z,9.73
2022-08-20T03:09:39.558Z,8.38
2022-08-20T03:12:08.193Z,7.93
2022-08-20T03:14:36.429Z,9.23
2022-08-20T03:17:04.643Z,9.32
2022-08-20T03:19:31.806Z,9.90
2022-08-20T03:21:59.251Z,9.95
2022-08-20T03:24:26.250Z,10.18
2022-08-20T03:26:53.886Z,10.20
2022-08-20T03:29:21.287Z,10.07
2022-08-20T03:31:49.151Z,8.80
2022-08-20T03:34:16.214Z,9.68
2022-08-20T03:36:43.647Z,9.38
2022-08-20T03:39:13.327Z,8.85
2022-08-20T03:41:40.642Z,9.45
2022-08-20T03:44:07.929Z,8.38
2022-08-20T03:46:35.202Z,9.48
2022-08-20T03:49:02.456Z,11.30
2022-08-20T03:51:30.853Z,12.18
2022-08-20T03:53:58.634Z,8.55
2022-08-20T03:56:29.482Z,8.77
2022-08-20T03:58:57.146Z,8.38
2022-08-20T04:01:37.165Z,9.00
2022-08-20T04:04:12.861Z,8.43
2022-08-20T04:06:40.675Z,15.25
2022-08-20T04:11:41.210Z,18.17
2022-08-20T04:14:11.588Z,11.27
2022-08-20T04:16:43.981Z,7.72
2022-08-20T04:19:16.949Z,10.55
2022-08-20T04:21:44.414Z,10.25
2022-08-20T04:24:27.549Z,9.43
2022-08-20T04:26:59.748Z,10.30
2022-08-20T04:29:32.619Z,7.82
2022-08-20T04:32:03.368Z,7.40
2022-08-20T04:34:34.055Z,9.43
2022-08-20T04:37:01.398Z,7.30
2022-08-20T04:39:28.549Z,9.70
2022-08-20T04:41:55.539Z,8.38
2022-08-20T04:44:23.130Z,7.47
2022-08-20T04:46:51.425Z,7.60
2022-08-20T04:51:45.679Z,7.93
2022-08-20T04:54:14.558Z,8.00
2022-08-20T04:56:41.827Z,7.25
2022-08-20T04:59:09.165Z,7.78
2022-08-20T05:01:36.295Z,6.53
2022-08-20T05:04:03.673Z,8.43
2022-08-20T05:06:35.663Z,7.18
2022-08-20T05:09:03.097Z,7.93
2022-08-20T05:11:35.644Z,9.20
2022-08-20T05:14:07.939Z,7.07
2022-08-20T05:16:41.353Z,8.10
2022-08-20T05:19:14.351Z,7.82
2022-08-20T05:21:44.233Z,6.93
2022-08-20T05:24:12.376Z,9.02
2022-08-20T05:26:39.698Z,7.90
2022-08-20T05:29:07.707Z,8.15
2022-08-20T05:36:49.062Z,8.60
2022-08-20T05:39:18.633Z,8.00
2022-08-20T05:41:48.525Z,7.65
2022-08-20T05:44:19.998Z,7.88
2022-08-20T05:46:48.446Z,8.98
2022-08-20T05:49:24.459Z,9.00
2022-08-20T05:51:52.951Z,8.50
2022-08-20T05:54:20.394Z,8.07
2022-08-20T05:56:49.728Z,8.63
2022-08-20T05:59:24.054Z,8.40
2022-08-20T06:01:52.669Z,9.38
2022-08-20T06:04:32.235Z,8.05
2022-08-20T06:07:05.904Z,7.30
2022-08-20T06:09:35.286Z,8.75
2022-08-20T06:12:06.391Z,8.30
2022-08-20T06:14:37.481Z,7.50
2022-08-20T06:19:54.463Z,7.75
2022-08-20T06:22:25.164Z,7.57
2022-08-20T06:30:04.376Z,8.30
2022-08-20T06:32:33.797Z,7.00
2022-08-20T06:37:32.455Z,8.27
2022-08-20T06:40:03.306Z,8.10
2022-08-20T06:42:30.453Z,8.13
2022-08-20T06:44:59.642Z,7.15
2022-08-20T06:47:30.192Z,7.18
2022-08-20T06:50:00.460Z,8.05
2022-08-20T06:52:35.018Z,8.18
2022-08-20T06:55:21.804Z,8.02
2022-08-20T06:57:57.395Z,7.13
2022-08-20T07:00:27.007Z,8.27
2022-08-20T07:02:54.377Z,8.73
2022-08-20T07:05:21.795Z,8.35
2022-08-20T07:07:51.379Z,8.82
2022-08-20T07:10:22.648Z,7.75
2022-08-20T07:12:51.126Z,7.88
2022-08-20T07:15:21.791Z,9.27
2022-08-20T07:18:01.138Z,7.80
2022-08-20T07:20:31.755Z,7.80
2022-08-20T07:23:00.736Z,6.95
2022-08-20T07:25:30.692Z,8.50
2022-08-20T07:28:07.178Z,7.70
2022-08-20T07:30:58.436Z,7.20
2022-08-20T07:33:41.490Z,6.93
2022-08-20T07:36:09.493Z,7.35
2022-08-20T07:38:37.626Z,7.45
2022-08-20T07:41:13.340Z,7.30
2022-08-20T07:43:41.912Z,7.32
2022-08-20T07:46:10.240Z,6.60
2022-08-20T07:48:40.066Z,7.18
2022-08-20T07:51:09.015Z,5.35
2022-08-20T07:53:39.095Z,5.88
2022-08-20T07:56:13.578Z,6.60
2022-08-20T07:58:50.824Z,6.97
2022-08-20T08:01:21.102Z,6.35
2022-08-20T08:03:50.921Z,6.38
2022-08-20T08:06:29.647Z,5.30
2022-08-20T08:09:05.142Z,6.57
2022-08-20T08:11:38.333Z,6.38
2022-08-20T08:14:11.261Z,6.68
2022-08-20T08:16:39.404Z,6.10
2022-08-20T08:19:12.429Z,6.25
2022-08-20T08:21:39.663Z,6.78
2022-08-20T08:24:23.355Z,5.63
2022-08-20T08:26:57.260Z,5.70
2022-08-20T08:29:44.117Z,5.55
2022-08-20T08:32:16.316Z,5.40
2022-08-20T08:34:50.854Z,6.70
2022-08-20T08:37:37.888Z,5.68
2022-08-20T08:40:07.206Z,5.85
2022-08-20T08:42:43.308Z,5.75
2022-08-20T08:45:18.708Z,8.02
2022-08-20T08:47:46.019Z,7.00
2022-08-20T08:50:53.673Z,7.28
2022-08-20T08:53:30.443Z,5.85
2022-08-20T08:55:57.804Z,6.07
2022-08-20T08:58:25.216Z,5.68
2022-08-20T09:00:57.634Z,4.70
2022-08-20T09:03:38.406Z,5.03
2022-08-20T09:06:06.428Z,4.70
2022-08-20T09:08:37.137Z,6.22
2022-08-20T09:11:07.160Z,4.45
2022-08-20T09:13:35.412Z,4.15
2022-08-20T09:16:02.451Z,4.38
2022-08-20T09:18:29.843Z,5.28
2022-08-20T09:20:57.387Z,5.05
2022-08-20T09:23:26.038Z,5.00
2022-08-20T09:25:53.248Z,4.93
2022-08-20T09:28:20.813Z,5.63
2022-08-20T09:30:48.495Z,5.10
2022-08-20T09:33:15.829Z,5.88
2022-08-20T09:35:44.922Z,5.65
2022-08-20T09:38:13.324Z,5.53
2022-08-20T09:40:40.651Z,4.75
2022-08-20T09:43:08.961Z,4.68
2022-08-20T09:45:36.873Z,4.65
2022-08-20T09:50:34.047Z,5.70
2022-08-20T09:53:03.574Z,5.50
2022-08-20T09:55:42.872Z,5.47
2022-08-20T09:58:24.329Z,5.30
2022-08-20T10:00:52.008Z,4.50
2022-08-20T10:03:19.725Z,6.28
2022-08-20T10:05:46.914Z,5.75
2022-08-20T10:08:14.394Z,6.30
2022-08-20T10:10:41.879Z,6.53
2022-08-20T10:13:09.255Z,5.45
2022-08-20T10:15:41.952Z,5.90
2022-08-20T10:18:12.317Z,4.63
2022-08-20T10:20:40.379Z,5.90
2022-08-20T10:23:09.111Z,5.68
2022-08-20T10:25:37.243Z,5.88
2022-08-20T10:28:05.773Z,6.20
2022-08-20T10:30:34.036Z,5.50
2022-08-20T10:33:01.915Z,5.03
2022-08-20T10:35:30.100Z,4.45
2022-08-20T10:37:57.472Z,5.93
2022-08-20T10:40:28.514Z,6.45
2022-08-20T10:42:55.729Z,5.20
2022-08-20T10:45:25.536Z,5.85
2022-08-20T10:48:00.559Z,5.07
2022-08-20T10:50:30.363Z,5.38
2022-08-20T10:52:58.564Z,5.38
2022-08-20T10:55:26.158Z,5.93
2022-08-20T10:58:20.250Z,5.82
2022-08-20T11:00:54.392Z,5.03
2022-08-20T11:03:28.407Z,5.80
2022-08-20T11:08:34.716Z,5.50
2022-08-20T11:11:12.034Z,5.68
2022-08-20T11:13:40.297Z,5.50
2022-08-20T11:16:07.797Z,4.47
2022-08-20T11:18:36.331Z,4.43
2022-08-20T11:21:16.607Z,4.97
2022-08-20T11:23:46.044Z,5.50
2022-08-20T11:26:25.226Z,5.47
2022-08-20T11:28:52.920Z,5.18
2022-08-20T11:31:20.995Z,5.40
2022-08-20T11:33:48.533Z,5.03
2022-08-20T11:36:15.843Z,6.10
2022-08-20T11:38:43.251Z,5.38
2022-08-20T11:41:11.147Z,5.35
2022-08-20T11:43:38.902Z,4.72
2022-08-20T11:46:06.529Z,4.85
2022-08-20T11:48:33.998Z,5.15
2022-08-20T11:51:01.683Z,5.25
2022-08-20T11:53:28.824Z,4.68
2022-08-20T11:55:58.255Z,4.63
2022-08-20T11:58:26.591Z,5.22
2022-08-20T12:00:54.736Z,5.63
2022-08-20T12:03:23.093Z,4.95
2022-08-20T12:05:50.879Z,5.32
2022-08-20T12:08:27.669Z,4.82
2022-08-20T12:11:01.170Z,5.68
2022-08-20T12:13:47.939Z,4.93
2022-08-20T12:16:18.023Z,4.38
2022-08-20T12:18:46.362Z,5.13
2022-08-20T12:21:20.353Z,5.60
2022-08-20T12:26:16.772Z,5.10
2022-08-20T12:28:43.921Z,4.50
2022-08-20T12:31:25.852Z,4.20
2022-08-20T12:33:52.854Z,4.32
2022-08-20T12:36:21.405Z,4.97
2022-08-20T12:38:49.580Z,4.85
2022-08-20T12:41:16.574Z,4.55
2022-08-20T12:43:46.585Z,4.75
2022-08-20T12:46:13.836Z,4.45
2022-08-20T12:48:41.517Z,3.90
2022-08-20T12:51:25.566Z,5.40
2022-08-20T12:53:53.204Z,5.15
2022-08-20T12:56:20.704Z,5.18
2022-08-20T12:58:48.088Z,4.32
2022-08-20T13:01:17.184Z,5.38
2022-08-20T13:03:47.642Z,5.68
2022-08-20T13:06:14.655Z,4.03
2022-08-20T13:08:41.707Z,5.13
2022-08-20T13:11:08.995Z,7.72
2022-08-20T13:13:40.888Z,5.30
2022-08-20T13:16:08.415Z,5.43
2022-08-20T13:18:37.960Z,5.78
2022-08-20T13:21:04.989Z,5.22
2022-08-20T13:23:32.265Z,5.18
2022-08-20T13:25:59.628Z,5.00
2022-08-20T13:28:26.691Z,5.00
2022-08-20T13:30:53.822Z,3.42
2022-08-20T13:33:21.086Z,4.90
2022-08-20T13:35:48.113Z,4.25
2022-08-20T13:38:15.273Z,3.83
2022-08-20T13:40:43.339Z,5.07
2022-08-20T13:43:16.241Z,4.63
2022-08-20T13:45:44.251Z,4.80
2022-08-20T13:48:14.851Z,3.53
2022-08-20T13:50:42.934Z,4.55
2022-08-20T13:53:10.173Z,5.93
2022-08-20T13:55:39.160Z,6.00
2022-08-20T13:58:08.204Z,5.55
2022-08-20T14:00:36.613Z,5.10
2022-08-20T14:05:33.522Z,4.57
2022-08-20T14:08:12.165Z,5.22
2022-08-20T14:10:39.783Z,3.40
2022-08-20T14:13:15.180Z,5.25
2022-08-20T14:15:43.507Z,5.68
2022-08-20T14:20:38.733Z,4.88
2022-08-20T14:25:33.994Z,4.97
2022-08-20T14:30:36.612Z,4.30
2022-08-20T14:33:04.039Z,5.35
2022-08-20T14:35:31.694Z,3.75
2022-08-20T14:38:02.276Z,5.30
2022-08-20T14:40:37.034Z,4.10
2022-08-20T14:43:04.440Z,4.43
2022-08-20T14:45:34.606Z,3.47
2022-08-20T14:48:01.787Z,5.00
2022-08-20T14:50:34.364Z,4.72
2022-08-20T14:53:02.469Z,4.45
2022-08-20T14:55:33.061Z,4.88
2022-08-20T14:58:00.228Z,5.05
2022-08-20T15:00:35.832Z,4.95
2022-08-20T15:03:03.090Z,4.88
2022-08-20T15:05:30.222Z,4.80
2022-08-20T15:07:59.424Z,4.50
2022-08-20T15:10:33.136Z,5.30
2022-08-20T15:13:01.009Z,4.63
2022-08-20T15:15:28.587Z,4.32
2022-08-20T15:17:58.414Z,5.28
2022-08-20T15:20:27.861Z,4.55
2022-08-20T15:22:55.502Z,4.50
2022-08-20T15:25:36.482Z,3.65
2022-08-20T15:28:09.506Z,5.05
2022-08-20T15:30:41.326Z,4.47
2022-08-20T15:33:10.481Z,4.45
2022-08-20T15:35:38.455Z,4.53
2022-08-20T15:38:05.684Z,5.22
2022-08-20T15:40:33.488Z,4.18
2022-08-20T15:43:02.743Z,4.80
2022-08-20T15:45:31.743Z,5.22
2022-08-20T15:48:21.382Z,4.90
2022-08-20T15:50:48.351Z,4.57
2022-08-20T15:53:36.729Z,4.55
2022-08-20T15:56:11.396Z,4.50
2022-08-20T15:59:09.055Z,4.70
2022-08-20T16:02:14.760Z,4.28
2022-08-20T16:04:57.203Z,3.75
2022-08-20T16:07:50.627Z,4.63
2022-08-20T16:10:34.252Z,4.35
2022-08-20T16:13:06.401Z,4.65
2022-08-20T16:15:39.649Z,5.18
2022-08-20T16:18:23.230Z,4.32
2022-08-20T16:20:54.254Z,5.38
2022-08-20T16:23:31.617Z,5.47
2022-08-20T16:26:31.973Z,4.70
2022-08-20T16:29:25.059Z,4.40
2022-08-20T16:32:05.946Z,4.93
2022-08-20T16:35:06.857Z,4.82
2022-08-20T16:38:12.817Z,5.40
2022-08-20T16:40:51.273Z,5.25
2022-08-20T16:43:24.183Z,5.20
2022-08-20T16:45:57.836Z,5.07
2022-08-20T16:48:33.949Z,5.22
2022-08-20T16:51:08.783Z,4.80
2022-08-20T16:53:36.144Z,6.20
2022-08-20T16:56:03.852Z,7.07
2022-08-20T16:58:31.264Z,6.05
2022-08-20T17:01:25.663Z,5.88
2022-08-20T17:03:52.768Z,6.10
2022-08-20T17:06:32.247Z,5.82
2022-08-20T17:09:02.315Z,6.03
2022-08-20T17:11:33.110Z,6.68
2022-08-20T17:14:08.332Z,7.03
2022-08-20T17:16:47.081Z,8.55
2022-08-20T17:19:31.640Z,8.50
2022-08-20T17:22:11.712Z,7.75
2022-08-20T17:24:40.297Z,8.80
2022-08-20T17:27:15.443Z,8.00
2022-08-20T17:32:29.231Z,7.65
2022-08-20T17:35:00.406Z,9.90
2022-08-20T17:37:35.360Z,9.80
2022-08-20T17:40:18.411Z,9.43
2022-08-20T17:42:59.317Z,6.97
2022-08-20T17:45:32.271Z,8.18
2022-08-20T17:48:00.865Z,8.18
2022-08-20T17:50:32.400Z,10.57
2022-08-20T17:53:23.852Z,9.48
2022-08-20T17:55:58.452Z,8.45
2022-08-20T18:00:59.934Z,8.45
2022-08-20T18:03:27.409Z,10.20
2022-08-20T18:06:02.335Z,7.10
2022-08-20T18:08:38.828Z,9.85
2022-08-20T18:11:14.943Z,9.63
2022-08-20T18:13:55.865Z,9.15
2022-08-20T18:16:30.646Z,10.00
2022-08-20T18:19:15.086Z,7.07
2022-08-20T18:21:57.402Z,8.25
2022-08-20T18:24:33.609Z,8.50
2022-08-20T18:27:08.917Z,6.50
2022-08-20T18:29:41.764Z,6.80
2022-08-20T18:32:34.709Z,6.30
2022-08-20T18:35:32.079Z,8.27
2022-08-20T18:38:24.786Z,6.95
2022-08-20T18:40:55.088Z,7.93
2022-08-20T18:43:30.845Z,7.25
2022-08-20T18:46:13.762Z,6.15
2022-08-20T18:48:52.160Z,7.07
2022-08-20T18:51:24.080Z,7.45
2022-08-20T18:53:52.021Z,6.50
2022-08-20T18:56:34.991Z,9.80
2022-08-20T18:59:09.311Z,11.32
2022-08-20T19:01:38.809Z,7.40
2022-08-20T19:04:34.072Z,8.13
2022-08-20T19:07:05.578Z,11.50
2022-08-20T19:10:00.095Z,8.15
2022-08-20T19:12:57.179Z,6.65
2022-08-20T19:15:26.275Z,10.40
2022-08-20T19:18:09.473Z,9.52
2022-08-20T19:20:41.103Z,10.20
2022-08-20T19:23:20.945Z,8.98
2022-08-20T19:26:05.840Z,8.55
2022-08-20T19:28:55.520Z,7.55
2022-08-20T19:31:27.475Z,5.50
2022-08-20T19:34:21.945Z,7.60
2022-08-20T19:37:09.163Z,6.20
2022-08-20T19:39:48.560Z,6.10
2022-08-20T19:42:22.597Z,6.28
2022-08-20T19:44:57.580Z,6.63
2022-08-20T19:47:29.388Z,6.10
2022-08-20T19:50:17.902Z,6.25
2022-08-20T19:52:54.648Z,6.78
2022-08-20T19:55:26.234Z,7.28
2022-08-20T19:57:59.150Z,6.90
2022-08-20T20:00:30.356Z,7.65
2022-08-20T20:03:11.812Z,6.78
2022-08-20T20:08:19.461Z,4.88
2022-08-20T20:10:54.115Z,4.90
2022-08-20T20:15:54.453Z,5.13
2022-08-20T20:18:24.934Z,5.68
2022-08-20T20:21:09.186Z,7.10
2022-08-20T20:23:45.686Z,7.78
2022-08-20T20:26:19.982Z,5.38
2022-08-20T20:28:48.910Z,5.10
2022-08-20T20:31:29.464Z,5.43
2022-08-20T20:34:00.574Z,5.05
2022-08-20T20:36:38.422Z,5.88
2022-08-20T20:39:14.124Z,6.40
2022-08-20T20:41:54.474Z,7.30
2022-08-20T20:44:45.790Z,7.15
2022-08-20T20:47:48.407Z,7.03
2022-08-20T20:50:31.216Z,6.65
2022-08-20T20:53:01.727Z,7.13
2022-08-20T20:55:32.903Z,6.68
2022-08-20T20:58:02.775Z,6.55
2022-08-20T21:00:33.547Z,6.53
2022-08-20T21:03:03.873Z,6.93
2022-08-20T21:05:32.524Z,6.32
2022-08-20T21:08:02.563Z,6.30
2022-08-20T21:10:35.000Z,7.40
2022-08-20T21:13:05.341Z,5.93
2022-08-20T21:15:34.099Z,5.90
2022-08-20T21:18:03.234Z,6.20
2022-08-20T21:20:30.777Z,6.60
2022-08-20T21:23:00.109Z,6.22
2022-08-20T21:25:29.779Z,6.47
2022-08-20T21:27:57.322Z,6.75
2022-08-20T21:30:25.267Z,6.95
2022-08-20T21:32:52.605Z,7.05
2022-08-20T21:35:20.954Z,7.03
2022-08-20T21:37:48.128Z,6.78
2022-08-20T21:40:15.275Z,6.70
2022-08-20T21:42:45.526Z,6.40
2022-08-20T21:45:18.770Z,7.75
2022-08-20T21:47:49.684Z,6.43
2022-08-20T21:50:19.247Z,7.07
2022-08-20T21:52:52.498Z,7.30
2022-08-20T21:55:36.166Z,7.13
2022-08-20T21:58:06.172Z,6.80
2022-08-20T22:01:00.993Z,6.45
2022-08-20T22:03:33.978Z,6.88
2022-08-20T22:06:07.009Z,6.55
2022-08-20T22:08:34.738Z,8.05
2022-08-20T22:11:02.466Z,6.93
2022-08-20T22:13:32.895Z,8.63
2022-08-20T22:16:01.704Z,6.72
2022-08-20T22:18:28.972Z,7.20
2022-08-20T22:20:56.797Z,7.07
2022-08-20T22:23:24.216Z,6.72
2022-08-20T22:25:51.322Z,6.30
2022-08-20T22:28:19.193Z,6.43
2022-08-20T22:30:46.313Z,8.18
2022-08-20T22:33:20.154Z,5.72
2022-08-20T22:35:52.556Z,5.93
2022-08-20T22:38:20.673Z,7.55
2022-08-20T22:40:48.221Z,6.53
2022-08-20T22:43:16.103Z,6.30
2022-08-20T22:45:45.806Z,6.18
2022-08-20T22:48:16.447Z,6.97
2022-08-20T22:50:44.426Z,5.80
2022-08-20T22:53:13.060Z,5.50
2022-08-20T22:55:40.151Z,6.07
2022-08-20T22:58:07.791Z,6.75
2022-08-20T23:00:38.931Z,7.80
2022-08-20T23:03:07.210Z,6.20
2022-08-20T23:05:36.932Z,6.80
2022-08-20T23:08:05.858Z,8.10
2022-08-20T23:10:34.772Z,6.35
2022-08-20T23:13:02.545Z,7.22
2022-08-20T23:15:31.751Z,6.95
2022-08-20T23:18:06.521Z,6.80
2022-08-20T23:20:34.355Z,6.35
2022-08-20T23:23:01.362Z,7.30
2022-08-20T23:25:28.736Z,6.25
2022-08-20T23:28:04.079Z,7.03
2022-08-20T23:30:32.311Z,7.30
2022-08-20T23:33:01.521Z,6.55
2022-08-20T23:35:32.007Z,7.40
2022-08-20T23:38:00.873Z,6.88
2022-08-20T23:40:29.408Z,6.50
2022-08-20T23:42:57.020Z,6.22
2022-08-20T23:45:25.177Z,7.25
2022-08-20T23:47:52.937Z,7.10
2022-08-20T23:50:24.231Z,7.70
2022-08-20T23:52:52.918Z,5.97
2022-08-20T23:55:22.820Z,7.55
2022-08-20T23:57:50.937Z,8.65
